Time;durP1;ratioP1;P1;durP2;ratioP2;P2;SDS_P1;SDS_P2;PMS_P1;PMS_P2;Temp;Humidity;BMP_temperature;BMP_pressure;BME280_temperature;BME280_humidity;BME280_pressure;Samples;Min_cycle;Max_cycle;Signal;HPM_P1;HPM_P2
2021/03/04 00:01:22;;;;;;;;;75.00;61.00;;;;;12.99;42.48;99186.66;6224359;28;127464;-60
2021/03/04 00:04:24;;;;;;;;;74.00;57.00;;;;;12.93;42.20;99189.44;6223763;28;124805;-60
2021/03/04 00:07:25;;;;;;;;;73.00;59.80;;;;;12.92;42.45;99183.19;6209058;28;125259;-59
2021/03/04 00:10:28;;;;;;;;;74.60;59.60;;;;;12.97;42.60;99175.22;6208718;28;127474;-59
2021/03/04 00:13:30;;;;;;;;;71.80;60.80;;;;;12.85;42.62;99171.63;6191506;28;126790;-59
2021/03/04 00:16:31;;;;;;;;;75.50;61.00;;;;;12.74;43.06;99172.41;6182784;28;125083;-59
2021/03/04 00:19:33;;;;;;;;;75.00;59.50;;;;;12.74;42.88;99166.19;6183844;28;125948;-59
2021/03/04 00:22:35;;;;;;;;;72.60;58.80;;;;;12.71;42.71;99170.16;6193075;28;125277;-60
2021/03/04 00:25:37;;;;;;;;;73.40;56.00;;;;;12.72;43.07;99168.28;6200637;28;126666;-59
2021/03/04 00:28:38;;;;;;;;;69.40;54.40;;;;;12.64;43.25;99174.84;6188126;28;126331;-59
2021/03/04 00:31:40;;;;;;;;;69.80;54.60;;;;;12.61;43.39;99161.75;6183047;28;126494;-59
2021/03/04 00:34:42;;;;;;;;;70.00;54.00;;;;;12.58;43.09;99154.09;6183824;28;124861;-60
2021/03/04 00:37:44;;;;;;;;;66.00;50.80;;;;;12.74;42.90;99163.47;6183558;28;128330;-59
2021/03/04 00:40:45;;;;;;;;;67.00;51.00;;;;;12.69;42.67;99134.41;6182931;28;127472;-60
2021/03/04 00:43:47;;;;;;;;;63.00;51.00;;;;;12.57;42.57;99112.72;6201118;28;125103;-59
2021/03/04 00:46:48;;;;;;;;;64.00;50.00;;;;;12.58;42.57;99110.81;6208105;28;125240;-59
2021/03/04 00:49:55;;;;;;;;;59.80;47.40;;;;;12.85;42.54;99141.06;6206459;28;125608;-60
2021/03/04 00:52:56;;;;;;;;;61.40;47.00;;;;;12.82;42.31;99128.78;6207578;28;127797;-60
2021/03/04 00:55:58;;;;;;;;;58.80;46.40;;;;;12.87;42.43;99134.34;6208233;28;125444;-60
2021/03/04 00:59:00;;;;;;;;;57.00;45.40;;;;;12.84;42.45;99131.28;6208110;28;126355;-60
2021/03/04 01:02:02;;;;;;;;;56.00;44.20;;;;;12.82;42.47;99126.09;6207129;28;127589;-59
2021/03/04 01:05:05;;;;;;;;;56.00;45.00;;;;;12.76;42.69;99113.47;6208154;28;127151;-59
2021/03/04 01:08:07;;;;;;;;;55.80;46.00;;;;;12.51;42.97;99086.56;6208061;28;125086;-60
2021/03/04 01:11:08;;;;;;;;;59.40;46.40;;;;;12.73;42.68;99100.41;6206439;28;125172;-59
2021/03/04 01:14:10;;;;;;;;;56.20;44.80;;;;;12.76;42.46;99091.00;6207320;28;127277;-59
2021/03/04 01:17:15;;;;;;;;;55.40;44.60;;;;;12.86;42.22;99099.38;6207912;28;127750;-59
2021/03/04 01:20:18;;;;;;;;;55.25;45.25;;;;;12.89;41.97;99094.38;6207409;28;127147;-59
2021/03/04 01:23:19;;;;;;;;;55.00;44.00;;;;;12.72;41.91;99060.91;6206305;28;124626;-60
2021/03/04 01:26:31;;;;;;;;;58.25;45.50;;;;;12.76;41.95;99061.25;6257724;27;96588;-58
2021/03/04 01:29:32;;;;;;;;;56.40;45.00;;;;;12.88;41.83;99072.94;6241375;27;126572;-60
2021/03/04 01:32:35;;;;;;;;;57.00;46.00;;;;;12.83;41.71;99068.22;6227058;27;126711;-59
2021/03/04 01:35:36;;;;;;;;;53.20;43.20;;;;;12.89;41.33;99066.47;6227356;28;126958;-60
2021/03/04 01:38:38;;;;;;;;;56.00;44.00;;;;;12.90;41.41;99052.69;6227457;28;127620;-59
2021/03/04 01:41:39;;;;;;;;;54.40;43.00;;;;;12.97;41.14;99058.84;6226367;27;125220;-59
2021/03/04 01:44:41;;;;;;;;;56.50;44.00;;;;;12.97;41.19;99048.00;6204073;28;127337;-59
2021/03/04 01:47:47;;;;;;;;;56.40;45.40;;;;;12.72;41.15;99017.59;6203606;28;125452;-59
2021/03/04 01:50:49;;;;;;;;;55.00;44.00;;;;;12.91;40.99;99051.66;6203361;28;126296;-60
2021/03/04 01:53:51;;;;;;;;;56.60;43.00;;;;;12.89;41.24;99037.53;6202828;28;126937;-59
2021/03/04 01:56:52;;;;;;;;;51.25;42.00;;;;;12.94;40.93;99034.13;6203634;28;127620;-60
2021/03/04 01:59:56;;;;;;;;;56.00;43.00;;;;;12.93;40.75;99036.00;6203662;28;125644;-59
2021/03/04 02:02:57;;;;;;;;;52.40;42.00;;;;;13.01;40.43;99037.53;6203350;28;124747;-59
2021/03/04 02:06:00;;;;;;;;;54.50;42.25;;;;;12.97;40.47;99033.66;6202065;28;127970;-60
2021/03/04 02:09:07;;;;;;;;;54.60;43.60;;;;;12.91;40.59;99035.41;6202170;28;127192;-59
2021/03/04 02:12:19;;;;;;;;;54.75;43.00;;;;;12.67;40.56;99005.84;6209382;28;124986;-60
2021/03/04 02:15:27;;;;;;;;;54.50;43.25;;;;;12.81;40.77;99037.84;6209444;28;125714;-59
2021/03/04 02:18:34;;;;;;;;;51.40;42.00;;;;;12.52;41.22;99003.56;6203593;28;127717;-60
2021/03/04 02:21:52;;;;;;;;;52.80;42.20;;;;;12.38;41.12;98978.63;6203137;28;125331;-59
2021/03/04 02:24:59;;;;;;;;;52.60;42.60;;;;;12.68;41.28;99035.38;6201420;28;124716;-59
2021/03/04 02:28:01;;;;;;;;;54.80;44.00;;;;;12.69;41.11;99028.91;6201934;28;126068;-59
2021/03/04 02:31:08;;;;;;;;;55.40;43.40;;;;;12.42;40.99;98985.19;6202147;28;126432;-59
2021/03/04 02:34:11;;;;;;;;;53.40;42.80;;;;;12.24;40.75;98955.53;6202879;28;125360;-59
2021/03/04 02:37:19;;;;;;;;;53.00;43.20;;;;;12.46;41.39;99002.59;6190544;28;126323;-59
2021/03/04 02:40:24;;;;;;;;;52.20;42.20;;;;;12.42;41.44;98998.72;6201378;28;125963;-59
2021/03/04 02:43:28;;;;;;;;;53.00;42.20;;;;;12.43;41.41;99003.06;6202512;28;125848;-59
2021/03/04 02:46:31;;;;;;;;;56.00;44.00;;;;;12.02;41.79;98970.63;6211106;28;126110;-59
2021/03/04 02:49:35;;;;;;;;;52.60;41.00;;;;;12.36;41.48;98990.72;6211200;28;124889;-59
2021/03/04 02:52:37;;;;;;;;;54.40;43.00;;;;;12.34;41.69;98985.53;6192616;28;126595;-59
2021/03/04 02:55:39;;;;;;;;;50.60;41.20;;;;;12.28;41.82;98972.94;6209174;28;126251;-59
2021/03/04 02:58:41;;;;;;;;;54.00;43.20;;;;;12.06;41.77;98925.88;6209221;28;125092;-60
2021/03/04 03:01:44;;;;;;;;;49.60;41.00;;;;;12.27;41.87;98973.16;6210332;28;126515;-59
2021/03/04 03:04:47;;;;;;;;;50.00;40.40;;;;;12.28;41.76;98966.69;6210479;28;125891;-59
2021/03/04 03:07:49;;;;;;;;;52.00;41.60;;;;;12.11;42.25;98955.75;6210637;28;127135;-59
2021/03/04 03:10:52;;;;;;;;;49.40;40.00;;;;;12.25;41.69;98959.91;6192907;28;123384;-59
2021/03/04 03:13:54;;;;;;;;;52.00;42.00;;;;;12.28;41.73;98961.28;6190420;28;126152;-59
2021/03/04 03:16:58;;;;;;;;;50.80;40.40;;;;;12.07;41.71;98919.44;6208414;28;126177;-59
2021/03/04 03:19:59;;;;;;;;;50.00;40.25;;;;;12.20;41.53;98935.44;6210019;28;127685;-59
2021/03/04 03:23:03;;;;;;;;;50.60;41.00;;;;;12.31;41.79;98958.16;6207612;28;127019;-59
2021/03/04 03:26:05;;;;;;;;;50.60;41.80;;;;;12.34;41.62;98953.09;6208594;28;126083;-59
2021/03/04 03:29:06;;;;;;;;;49.80;41.80;;;;;12.32;41.34;98930.03;6208723;28;127532;-59
2021/03/04 03:32:11;;;;;;;;;54.40;44.00;;;;;12.37;41.28;98935.56;6196436;28;127586;-59
2021/03/04 03:35:14;;;;;;;;;53.00;41.00;;;;;12.13;41.31;98902.25;6203986;28;125850;-60
2021/03/04 03:38:17;;;;;;;;;49.00;40.00;;;;;12.20;41.24;98911.09;6188903;28;126032;-59
2021/03/04 03:41:19;;;;;;;;;50.50;40.00;;;;;12.36;41.32;98944.78;6186261;28;128074;-59
2021/03/04 03:44:22;;;;;;;;;48.75;40.00;;;;;12.32;41.30;98941.69;6208088;28;124300;-59
2021/03/04 03:47:25;;;;;;;;;53.00;42.75;;;;;12.32;41.21;98938.97;6208619;28;126113;-59
2021/03/04 03:50:27;;;;;;;;;49.80;40.20;;;;;12.28;41.32;98935.09;6209900;28;126067;-59
2021/03/04 03:53:29;;;;;;;;;53.00;42.00;;;;;11.93;41.17;98880.13;6210197;28;126511;-59
2021/03/04 03:56:34;;;;;;;;;49.00;39.60;;;;;12.19;41.42;98941.88;6208418;28;125205;-59
2021/03/04 03:59:37;;;;;;;;;52.40;41.60;;;;;11.87;41.38;98889.16;6209801;28;128038;-59
2021/03/04 04:02:39;;;;;;;;;48.00;40.00;;;;;12.10;41.53;98933.28;6209909;28;126754;-59
2021/03/04 04:05:41;;;;;;;;;50.00;41.00;;;;;12.03;41.71;98932.56;6209784;28;125035;-59
2021/03/04 04:08:44;;;;;;;;;51.60;41.40;;;;;11.87;42.05;98911.59;6209629;28;126260;-59
2021/03/04 04:11:45;;;;;;;;;48.00;38.75;;;;;11.90;42.07;98924.66;6201707;28;125132;-59
2021/03/04 04:14:46;;;;;;;;;50.40;41.00;;;;;12.00;42.03;98915.97;6184802;28;127602;-59
2021/03/04 04:17:49;;;;;;;;;52.50;42.00;;;;;11.97;42.32;98919.94;6185119;28;126626;-59
2021/03/04 04:20:51;;;;;;;;;50.00;40.50;;;;;11.96;42.31;98912.94;6184476;28;126178;-59
2021/03/04 04:23:52;;;;;;;;;54.20;42.00;;;;;11.96;42.10;98904.00;6184254;28;127289;-59
2021/03/04 04:26:54;;;;;;;;;51.60;41.00;;;;;11.79;42.09;98867.88;6184592;28;125950;-60
2021/03/04 04:29:55;;;;;;;;;49.00;40.00;;;;;11.94;42.08;98877.19;6184561;28;127604;-59
2021/03/04 04:32:56;;;;;;;;;50.00;40.50;;;;;12.04;42.00;98896.38;6183138;28;125338;-59
2021/03/04 04:35:58;;;;;;;;;51.50;40.50;;;;;12.03;41.90;98889.31;6184428;28;127644;-59
2021/03/04 04:39:00;;;;;;;;;46.60;39.20;;;;;12.07;41.74;98887.78;6184001;28;125416;-59
2021/03/04 04:42:01;;;;;;;;;49.20;40.00;;;;;12.00;41.70;98868.16;6185325;28;128019;-59
2021/03/04 04:45:07;;;;;;;;;49.60;40.00;;;;;12.16;41.36;98874.78;6184124;28;126229;-59
2021/03/04 04:48:08;;;;;;;;;53.20;43.40;;;;;12.22;41.12;98875.75;6183907;28;127752;-59
2021/03/04 04:51:11;;;;;;;;;51.00;41.00;;;;;12.06;41.75;98855.63;6184131;28;127418;-59
2021/03/04 04:54:13;;;;;;;;;54.00;43.20;;;;;12.07;41.49;98854.56;6183230;28;125737;-59
2021/03/04 04:57:14;;;;;;;;;53.40;43.00;;;;;12.00;41.69;98860.06;6181515;28;127127;-59
2021/03/04 05:00:16;;;;;;;;;53.00;42.60;;;;;11.94;41.76;98863.69;6183250;28;126788;-59
2021/03/04 05:03:18;;;;;;;;;50.00;41.00;;;;;11.91;41.83;98852.53;6183583;28;125305;-59
2021/03/04 05:06:20;;;;;;;;;51.00;41.00;;;;;11.62;41.91;98817.19;6184342;28;125367;-59
2021/03/04 05:09:22;;;;;;;;;50.00;40.00;;;;;11.85;42.02;98835.34;6183452;28;123634;-59
2021/03/04 05:12:23;;;;;;;;;52.00;41.40;;;;;11.63;41.34;98783.72;6196223;28;126607;-59
2021/03/04 05:15:25;;;;;;;;;50.00;41.00;;;;;11.90;41.65;98823.84;6206702;28;127691;-59
2021/03/04 05:18:26;;;;;;;;;52.20;41.40;;;;;11.80;41.49;98799.28;6205958;28;124362;-59
2021/03/04 05:21:28;;;;;;;;;51.20;40.80;;;;;11.86;41.47;98801.91;6207081;28;127926;-59
2021/03/04 05:24:29;;;;;;;;;50.00;40.33;;;;;12.00;41.32;98816.00;6205217;28;126967;-59
2021/03/04 05:27:31;;;;;;;;;49.00;40.00;;;;;11.73;41.27;98759.69;6200288;28;125438;-59
2021/03/04 05:30:32;;;;;;;;;49.00;40.00;;;;;12.13;41.04;98810.38;6183620;28;127982;-59
2021/03/04 05:33:34;;;;;;;;;50.25;40.00;;;;;12.12;40.94;98800.63;6189364;28;125218;-59
2021/03/04 05:36:35;;;;;;;;;53.00;41.00;;;;;11.84;41.33;98770.75;6195651;28;127507;-59
2021/03/04 05:39:37;;;;;;;;;50.00;40.40;;;;;12.05;41.17;98800.75;6187218;28;127764;-59
2021/03/04 05:42:42;;;;;;;;;49.20;40.00;;;;;12.09;40.89;98796.53;6200092;28;125615;-59
2021/03/04 05:45:48;;;;;;;;;49.25;40.75;;;;;12.13;40.81;98794.16;6208210;28;125858;-59
2021/03/04 05:48:51;;;;;;;;;48.80;40.00;;;;;12.19;40.66;98795.94;6207513;28;123583;-59
2021/03/04 05:51:55;;;;;;;;;49.00;40.00;;;;;12.02;40.71;98765.28;6180977;28;126205;-59
2021/03/04 05:54:57;;;;;;;;;48.80;39.80;;;;;12.33;40.65;98791.13;6182591;28;126615;-59
2021/03/04 05:58:00;;;;;;;;;47.50;39.00;;;;;12.32;40.63;98787.59;6183067;28;124640;-59
2021/03/04 06:01:02;;;;;;;;;50.00;41.40;;;;;11.87;40.68;98740.59;6182488;28;126336;-58
2021/03/04 06:04:04;;;;;;;;;49.60;40.00;;;;;12.10;40.92;98787.38;6182882;28;125211;-59
2021/03/04 06:07:06;;;;;;;;;47.75;39.00;;;;;11.81;40.97;98749.63;6181678;28;126109;-58
2021/03/04 06:10:07;;;;;;;;;50.00;41.00;;;;;12.17;40.79;98792.63;6183398;28;127552;-59
2021/03/04 06:13:09;;;;;;;;;53.00;42.00;;;;;12.26;40.68;98798.53;6186552;28;126236;-59
2021/03/04 06:16:10;;;;;;;;;52.00;41.00;;;;;12.24;40.79;98803.34;6186651;28;126327;-59
2021/03/04 06:19:19;;;;;;;;;47.00;39.60;;;;;12.19;40.53;98778.91;6187164;28;127772;-59
2021/03/04 06:22:27;;;;;;;;;51.60;42.00;;;;;12.28;40.77;98804.50;6186737;28;125958;-59
2021/03/04 06:25:29;;;;;;;;;49.20;41.00;;;;;12.10;40.42;98768.44;6184922;28;124928;-59
2021/03/04 06:28:33;;;;;;;;;48.40;40.00;;;;;12.36;40.53;98809.59;6198299;28;127268;-59
2021/03/04 06:31:34;;;;;;;;;52.40;42.00;;;;;12.19;40.52;98789.72;6217832;28;125876;-59
2021/03/04 06:34:36;;;;;;;;;48.00;39.00;;;;;12.41;40.34;98818.63;6185528;28;126704;-59
2021/03/04 06:37:42;;;;;;;;;54.00;44.00;;;;;12.46;40.28;98826.84;6186633;28;125301;-59
2021/03/04 06:40:45;;;;;;;;;52.60;42.60;;;;;12.48;40.16;98813.09;6186394;28;124973;-60
2021/03/04 06:43:47;;;;;;;;;55.00;44.00;;;;;12.42;40.20;98820.28;6186238;28;125196;-59
2021/03/04 06:46:48;;;;;;;;;56.25;44.00;;;;;12.28;40.44;98801.81;6186633;28;126938;-59
2021/03/04 06:49:51;;;;;;;;;54.40;44.00;;;;;12.25;40.53;98808.53;6186673;28;125942;-59
2021/03/04 06:53:25;;;;;;;;;55.50;44.00;;;;;12.18;40.83;98807.81;6195481;28;124169;-60
2021/03/04 06:56:28;;;;;;;;;55.00;44.00;;;;;12.11;40.63;98812.50;6221741;28;126557;-59
2021/03/04 06:59:44;;;;;;;;;55.00;44.00;;;;;12.20;40.71;98804.88;6222643;28;124819;-59
2021/03/04 07:02:53;;;;;;;;;53.00;42.00;;;;;12.18;40.27;98779.94;6201651;28;124415;-59
2021/03/04 07:05:55;;;;;;;;;48.75;40.75;;;;;12.42;40.19;98800.50;6226783;28;126956;-59
2021/03/04 07:08:57;;;;;;;;;50.00;40.00;;;;;12.52;40.19;98803.47;6208530;28;125004;-59
2021/03/04 07:12:00;;;;;;;;;50.00;41.50;;;;;12.60;40.28;98800.41;6226517;27;127702;-59
2021/03/04 07:15:02;;;;;;;;;52.00;43.00;;;;;12.71;40.04;98818.50;6224745;28;124123;-61
2021/03/04 07:18:03;;;;;;;;;51.40;41.00;;;;;12.87;40.04;98798.81;6216715;28;126207;-60
2021/03/04 07:21:08;;;;;;;;;51.00;41.00;;;;;12.82;40.01;98787.91;6216204;28;127606;-59
2021/03/04 07:24:10;;;;;;;;;47.40;37.40;;;;;13.01;39.97;98800.22;6209316;28;124285;-60
2021/03/04 07:27:14;;;;;;;;;45.50;37.50;;;;;13.09;39.56;98773.84;6214695;28;126378;-60
2021/03/04 07:30:16;;;;;;;;;47.25;38.75;;;;;13.58;39.13;98800.28;6233506;27;125924;-60
2021/03/04 07:33:18;;;;;;;;;46.60;37.60;;;;;13.81;38.75;98805.56;6225129;28;125104;-61
2021/03/04 07:36:21;;;;;;;;;45.80;36.80;;;;;14.27;37.90;98792.75;6211527;28;127134;-60
2021/03/04 07:39:30;;;;;;;;;47.50;38.25;;;;;14.57;37.21;98809.50;6228260;28;125572;-60
2021/03/04 07:42:32;;;;;;;;;47.50;38.75;;;;;14.25;37.02;98749.63;6220066;28;124075;-60
2021/03/04 07:45:44;;;;;;;;;49.00;38.00;;;;;14.42;37.00;98774.03;6198832;28;124735;-58
2021/03/04 07:48:50;;;;;;;;;45.75;38.00;;;;;14.65;36.62;98773.84;6219257;27;127827;-60
2021/03/04 07:51:52;;;;;;;;;49.00;39.60;;;;;14.76;36.32;98766.63;6225754;28;126668;-60
2021/03/04 07:54:55;;;;;;;;;45.80;38.80;;;;;15.35;35.95;98792.06;6224804;28;125366;-59
2021/03/04 07:57:57;;;;;;;;;48.00;37.00;;;;;15.47;35.22;98762.03;6205050;28;126518;-59
2021/03/04 08:01:10;;;;;;;;;45.40;38.40;;;;;16.15;34.54;98783.06;6210580;28;128252;-60
2021/03/04 08:04:24;;;;;;;;;47.00;36.20;;;;;16.87;33.68;98771.56;6203603;28;124502;-60
2021/03/04 08:07:27;;;;;;;;;46.00;38.00;;;;;17.85;32.06;98769.69;6215937;28;126150;-59
2021/03/04 08:10:28;;;;;;;;;49.00;38.00;;;;;18.61;30.90;98761.50;6219925;27;126248;-61
2021/03/04 08:13:31;;;;;;;;;49.40;38.40;;;;;19.74;29.55;98766.19;6228001;28;127187;-60
2021/03/04 08:16:33;;;;;;;;;49.80;37.60;;;;;20.87;27.94;98742.97;6219184;27;126598;-59
2021/03/04 08:19:35;;;;;;;;;49.75;40.00;;;;;21.29;27.13;98748.53;6224603;28;126377;-59
2021/03/04 08:22:54;;;;;;;;;48.00;38.60;;;;;20.65;27.97;98749.00;6221393;28;126162;-60
2021/03/04 08:25:56;;;;;;;;;47.00;37.20;;;;;20.08;28.40;98745.16;6215476;27;124911;-59
2021/03/04 08:29:06;;;;;;;;;48.33;38.33;;;;;19.60;28.92;98741.38;6226279;27;127040;-60
2021/03/04 08:32:13;;;;;;;;;46.20;38.00;;;;;19.11;29.81;98733.16;6200914;28;126689;-59
2021/03/04 08:35:19;;;;;;;;;43.50;35.00;;;;;18.96;30.09;98749.66;6209121;27;125816;-60
2021/03/04 08:38:24;;;;;;;;;45.50;36.00;;;;;18.86;30.30;98752.41;6220097;27;123638;-60
2021/03/04 08:41:25;;;;;;;;;45.00;36.00;;;;;18.59;30.72;98744.56;6223412;28;127217;-60
2021/03/04 08:44:26;;;;;;;;;45.50;36.75;;;;;18.46;31.14;98734.19;6217739;28;127100;-60
2021/03/04 08:47:28;;;;;;;;;47.00;36.00;;;;;18.26;31.44;98726.03;6215282;27;125335;-60
2021/03/04 08:50:37;;;;;;;;;45.33;36.00;;;;;18.26;31.27;98721.41;6219015;27;126032;-60
2021/03/04 08:53:39;;;;;;;;;49.75;39.00;;;;;18.07;31.67;98728.53;6223418;28;127154;-59
2021/03/04 08:56:51;;;;;;;;;48.20;38.00;;;;;18.09;31.53;98716.22;6221238;28;126429;-60
2021/03/04 09:00:12;;;;;;;;;46.80;38.00;;;;;18.42;31.34;98733.13;6213799;28;124902;-60
2021/03/04 09:03:18;;;;;;;;;49.00;38.00;;;;;19.20;30.36;98730.69;6215162;27;126390;-59
2021/03/04 09:06:20;;;;;;;;;46.50;38.00;;;;;19.90;29.32;98721.19;6221405;27;125359;-60
2021/03/04 09:09:25;;;;;;;;;46.00;38.00;;;;;20.70;28.56;98735.25;6212279;28;126015;-62
2021/03/04 09:12:27;;;;;;;;;47.00;38.80;;;;;21.15;28.12;98737.47;6219282;27;124786;-60
2021/03/04 09:15:29;;;;;;;;;50.40;40.40;;;;;21.00;27.83;98701.19;6223361;28;125379;-60
2021/03/04 09:18:31;;;;;;;;;54.00;42.80;;;;;21.16;27.82;98732.78;6219281;28;128178;-61
2021/03/04 09:21:33;;;;;;;;;54.40;42.00;;;;;20.92;28.16;98729.22;6210299;27;126292;-62
2021/03/04 09:24:37;;;;;;;;;55.00;43.80;;;;;20.68;28.56;98721.81;6218498;28;125923;-61
2021/03/04 09:27:39;;;;;;;;;55.50;43.50;;;;;20.46;29.00;98698.81;6214032;27;125298;-59
2021/03/04 09:30:42;;;;;;;;;52.00;41.00;;;;;20.35;29.16;98725.47;6216736;27;126161;-61
2021/03/04 09:33:43;;;;;;;;;57.40;45.40;;;;;20.06;30.01;98727.38;6223028;28;127298;-62
2021/03/04 09:36:45;;;;;;;;;53.80;44.00;;;;;20.15;29.76;98714.69;6190133;28;125849;-60
2021/03/04 09:39:48;;;;;;;;;56.60;44.20;;;;;19.97;30.01;98718.97;6208956;28;127625;-62
2021/03/04 09:42:50;;;;;;;;;56.00;44.20;;;;;19.77;30.17;98713.66;6216027;27;126821;-61
2021/03/04 09:45:53;;;;;;;;;55.00;44.00;;;;;19.71;30.32;98704.66;6217572;28;127241;-60
2021/03/04 09:49:08;;;;;;;;;57.00;44.00;;;;;19.61;30.80;98709.38;6227335;28;125035;-60
2021/03/04 09:52:18;;;;;;;;;57.50;44.00;;;;;19.61;30.78;98704.75;6220298;28;124748;-60
2021/03/04 09:55:36;;;;;;;;;55.40;44.40;;;;;19.60;30.76;98707.75;6219756;28;126723;-61
2021/03/04 09:58:44;;;;;;;;;52.60;43.00;;;;;19.72;30.69;98695.38;6220924;28;126704;-60
2021/03/04 10:01:45;;;;;;;;;54.60;44.00;;;;;19.85;30.47;98704.81;6226152;28;126831;-60
2021/03/04 10:05:17;;;;;;;;;56.00;44.00;;;;;20.06;30.13;98695.34;6219197;28;124678;-61
2021/03/04 10:08:19;;;;;;;;;55.00;44.00;;;;;20.33;29.40;98685.81;6208473;28;126858;-60
2021/03/04 10:11:23;;;;;;;;;56.60;44.00;;;;;20.63;29.22;98696.41;6217677;28;127534;-60
2021/03/04 10:14:25;;;;;;;;;56.20;44.00;;;;;20.82;29.11;98689.06;6223640;28;127388;-60
2021/03/04 10:17:26;;;;;;;;;60.00;45.50;;;;;20.67;28.95;98684.56;6227302;28;126730;-60
2021/03/04 10:20:28;;;;;;;;;56.80;44.60;;;;;20.49;28.92;98690.81;6222496;28;124555;-60
2021/03/04 10:23:31;;;;;;;;;55.00;45.00;;;;;20.73;28.96;98688.91;6218777;27;125465;-60
2021/03/04 10:26:32;;;;;;;;;58.00;45.00;;;;;20.79;28.88;98686.91;6222325;28;127451;-60
2021/03/04 10:29:37;;;;;;;;;57.00;45.20;;;;;20.89;28.73;98684.03;6226756;28;127412;-61
2021/03/04 10:32:39;;;;;;;;;58.80;46.00;;;;;20.70;28.95;98697.72;6222153;28;127318;-60
2021/03/04 10:35:41;;;;;;;;;62.25;47.50;;;;;20.52;29.49;98690.25;6217384;27;126279;-61
2021/03/04 10:38:43;;;;;;;;;58.00;46.40;;;;;20.37;29.62;98652.09;6211697;28;125919;-61
2021/03/04 10:41:45;;;;;;;;;58.60;46.40;;;;;20.52;29.61;98679.31;6224586;28;124701;-61
2021/03/04 10:44:46;;;;;;;;;63.00;48.00;;;;;20.36;30.18;98666.88;6223986;28;126405;-61
2021/03/04 10:47:48;;;;;;;;;61.20;47.00;;;;;20.00;30.89;98662.81;6216280;28;125398;-61
2021/03/04 10:50:49;;;;;;;;;61.25;48.00;;;;;19.91;30.88;98665.38;6219425;27;125110;-62
2021/03/04 10:53:50;;;;;;;;;60.25;46.25;;;;;19.72;31.10;98651.59;6226503;28;127644;-61
2021/03/04 10:56:52;;;;;;;;;62.20;48.20;;;;;19.56;31.11;98632.84;6225245;27;124006;-61
2021/03/04 10:59:53;;;;;;;;;63.40;49.00;;;;;19.61;31.59;98650.03;6208754;28;127478;-61
2021/03/04 11:02:55;;;;;;;;;63.80;48.00;;;;;19.20;31.82;98656.88;6217997;27;126313;-60
2021/03/04 11:05:56;;;;;;;;;58.50;46.00;;;;;19.09;31.91;98642.47;6225865;27;127050;-60
2021/03/04 11:08:58;;;;;;;;;62.00;47.40;;;;;19.15;32.16;98622.22;6221398;28;127519;-62
2021/03/04 11:12:01;;;;;;;;;60.00;46.00;;;;;18.89;32.20;98637.94;6200776;28;126313;-58
2021/03/04 11:15:22;;;;;;;;;62.00;48.00;;;;;18.95;32.48;98630.53;6217202;27;125002;-61
2021/03/04 11:18:24;;;;;;;;;57.00;45.00;;;;;18.86;32.41;98613.91;6217360;28;125930;-61
2021/03/04 11:21:26;;;;;;;;;55.75;44.50;;;;;18.75;32.86;98634.19;6221992;28;124932;-61
2021/03/04 11:24:27;;;;;;;;;58.25;45.00;;;;;18.77;33.04;98631.16;6217010;28;124729;-60
2021/03/04 11:27:28;;;;;;;;;58.60;45.20;;;;;18.76;33.13;98632.28;6214580;28;128211;-60
2021/03/04 11:30:30;;;;;;;;;54.00;43.50;;;;;18.62;33.00;98587.56;6218035;28;125710;-62
2021/03/04 11:33:32;;;;;;;;;59.50;46.00;;;;;18.62;33.23;98620.34;6222843;28;127760;-60
2021/03/04 11:36:34;;;;;;;;;60.00;46.00;;;;;18.51;33.57;98619.53;6202743;28;124455;-59
2021/03/04 11:39:36;;;;;;;;;57.00;44.20;;;;;18.46;33.43;98598.53;6225155;28;127690;-60
2021/03/04 11:42:38;;;;;;;;;60.60;47.40;;;;;18.60;33.37;98609.69;6219124;28;126994;-63
2021/03/04 11:45:39;;;;;;;;;60.80;46.00;;;;;18.63;33.34;98598.19;6214480;28;129423;-62
2021/03/04 11:48:40;;;;;;;;;58.20;45.60;;;;;18.41;33.56;98573.16;6215528;28;125507;-61
2021/03/04 11:51:42;;;;;;;;;57.80;45.00;;;;;18.57;33.38;98599.31;6199965;28;127477;-61
2021/03/04 11:54:57;;;;;;;;;54.40;44.00;;;;;18.39;33.61;98591.72;6217424;27;124832;-61
2021/03/04 11:58:00;;;;;;;;;55.00;45.00;;;;;18.26;33.83;98578.69;6214602;28;127723;-60
2021/03/04 12:01:02;;;;;;;;;53.00;42.25;;;;;18.32;33.54;98572.94;6208326;28;126419;-61
2021/03/04 12:04:05;;;;;;;;;55.40;44.00;;;;;18.28;33.68;98580.03;6225151;27;126371;-61
2021/03/04 12:07:07;;;;;;;;;55.00;43.20;;;;;18.17;33.85;98581.19;6225100;28;125154;-61
2021/03/04 12:10:11;;;;;;;;;57.00;44.00;;;;;18.08;33.85;98563.75;6217683;28;126768;-61
2021/03/04 12:13:12;;;;;;;;;53.20;43.20;;;;;18.16;33.75;98566.72;6215644;28;124660;-61
2021/03/04 12:16:14;;;;;;;;;58.00;45.00;;;;;18.18;33.90;98563.69;6222529;27;124239;-61
2021/03/04 12:19:16;;;;;;;;;55.50;44.50;;;;;18.14;33.91;98560.72;6187799;28;126544;-60
2021/03/04 12:22:17;;;;;;;;;52.20;42.20;;;;;17.42;33.88;98437.69;6232084;28;127006;-60
2021/03/04 12:25:19;;;;;;;;;58.00;44.00;;;;;18.23;33.88;98552.75;6216683;28;125873;-59
2021/03/04 12:28:20;;;;;;;;;57.75;44.75;;;;;17.88;33.88;98509.28;6222118;27;126727;-60
2021/03/04 12:31:22;;;;;;;;;52.00;42.50;;;;;18.30;33.90;98550.56;6223458;28;125313;-59
2021/03/04 12:34:24;;;;;;;;;52.80;42.80;;;;;18.32;33.73;98548.38;6219982;28;125169;-60
2021/03/04 12:37:25;;;;;;;;;50.40;41.60;;;;;18.15;33.88;98513.25;6216744;27;125424;-60
2021/03/04 12:40:28;;;;;;;;;55.00;41.60;;;;;18.37;33.77;98547.53;6221246;28;127610;-60
2021/03/04 12:43:30;;;;;;;;;58.00;45.00;;;;;17.99;34.04;98510.84;6223746;28;125993;-61
2021/03/04 12:46:31;;;;;;;;;54.20;43.40;;;;;18.15;34.09;98537.81;6216934;28;127393;-61
2021/03/04 12:49:32;;;;;;;;;56.00;44.00;;;;;18.14;34.07;98532.63;6213426;28;126189;-61
2021/03/04 12:52:34;;;;;;;;;55.00;44.00;;;;;18.04;34.44;98506.19;6219956;27;125378;-59
2021/03/04 12:55:36;;;;;;;;;54.60;43.00;;;;;18.27;34.08;98534.75;6221773;28;126502;-59
2021/03/04 12:58:37;;;;;;;;;58.40;45.40;;;;;18.26;34.12;98515.94;6208429;27;125330;-60
2021/03/04 13:01:39;;;;;;;;;54.40;44.00;;;;;18.16;34.28;98516.78;6221207;28;127034;-60
2021/03/04 13:04:41;;;;;;;;;54.60;43.60;;;;;18.15;34.32;98528.78;6220536;28;127193;-59
2021/03/04 13:07:42;;;;;;;;;55.25;42.50;;;;;18.20;34.40;98520.59;6215439;27;126815;-61
2021/03/04 13:10:44;;;;;;;;;55.20;44.00;;;;;18.17;34.63;98516.53;6208137;28;125343;-59
2021/03/04 13:25:29;;;;;;;;;52.25;41.25;;;;;18.16;34.63;98514.88;6203764;28;97141;-61
2021/03/04 13:28:30;;;;;;;;;55.80;42.20;;;;;18.18;34.25;98507.22;6202181;28;126346;-62
2021/03/04 13:31:31;;;;;;;;;55.40;43.00;;;;;18.19;34.33;98489.75;6222998;28;127215;-60
2021/03/04 13:34:33;;;;;;;;;56.60;43.60;;;;;18.15;34.06;98521.44;6218413;28;126463;-60
2021/03/04 13:37:35;;;;;;;;;53.00;41.00;;;;;17.34;33.88;98354.59;6215172;27;127262;-61
2021/03/04 13:40:36;;;;;;;;;51.40;41.80;;;;;18.00;34.24;98488.75;6212630;27;124744;-62
2021/03/04 13:43:39;;;;;;;;;52.60;43.60;;;;;18.10;34.25;98474.25;6218254;28;124315;-61
2021/03/04 13:46:40;;;;;;;;;53.50;41.50;;;;;18.01;34.07;98484.13;6207523;28;125418;-61
2021/03/04 13:49:42;;;;;;;;;55.00;43.00;;;;;17.92;33.95;98453.88;6222535;28;127581;-60
2021/03/04 13:52:43;;;;;;;;;52.00;40.00;;;;;18.13;33.45;98482.69;6220367;28;128333;-61
2021/03/04 13:55:44;;;;;;;;;49.00;39.60;;;;;18.14;33.76;98487.06;6211211;27;125290;-61
2021/03/04 13:58:46;;;;;;;;;53.00;39.75;;;;;18.03;33.63;98466.38;6198323;28;125278;-61
2021/03/04 14:01:47;;;;;;;;;51.80;40.40;;;;;18.12;33.56;98470.16;6222683;28;127554;-61
2021/03/04 14:04:51;;;;;;;;;49.00;40.75;;;;;18.11;33.61;98473.16;6221266;28;126082;-61